Terminal Aerodrome Forecast
Issued by NWS

Home | Current Version | Previous Version | Text Only | Print | Product List | Glossary On
Versions: 1 2 3 4 5 6 7 8 9 10 11 12 13 14 15 16 17
073
FTUS41 KPBZ 182320
TAFBVI
TAF
KBVI 182320Z 1900/1924 24005KT P6SM OVC015
     FM190600 24003KT P6SM OVC008
     FM191400 25003KT P6SM BKN020
     FM191600 VRB04KT P6SM SCT150
      AMD NOT SKED 1902/1912=

USA.gov is the U.S. government's official web portal to all federal, state and local government web resources and services.